sensor_id;sensor_type;location;lat;lon;timestamp;P1;durP1;ratioP1;P2;durP2;ratioP2
58567;SDS011;44354;46.192;-1.076;2022-12-29T00:02:13;1.90;;;1.52;;
58567;SDS011;44354;46.192;-1.076;2022-12-29T00:04:39;2.08;;;1.98;;
58567;SDS011;44354;46.192;-1.076;2022-12-29T00:07:05;0.60;;;0.60;;
58567;SDS011;44354;46.192;-1.076;2022-12-29T00:09:31;24.08;;;2.17;;
58567;SDS011;44354;46.192;-1.076;2022-12-29T00:11:58;7.03;;;1.60;;
58567;SDS011;44354;46.192;-1.076;2022-12-29T00:14:24;3.97;;;1.17;;
58567;SDS011;44354;46.192;-1.076;2022-12-29T00:17:08;0.60;;;0.60;;
58567;SDS011;44354;46.192;-1.076;2022-12-29T00:19:34;1.95;;;0.68;;
58567;SDS011;44354;46.192;-1.076;2022-12-29T00:22:18;0.68;;;0.60;;
58567;SDS011;44354;46.192;-1.076;2022-12-29T00:25:03;3.13;;;0.95;;
58567;SDS011;44354;46.192;-1.076;2022-12-29T00:27:48;3.28;;;0.50;;
58567;SDS011;44354;46.192;-1.076;2022-12-29T00:30:32;4.40;;;1.00;;
58567;SDS011;44354;46.192;-1.076;2022-12-29T00:33:17;0.82;;;0.82;;
58567;SDS011;44354;46.192;-1.076;2022-12-29T00:36:05;5.80;;;1.05;;
58567;SDS011;44354;46.192;-1.076;2022-12-29T00:38:35;0.40;;;0.40;;
58567;SDS011;44354;46.192;-1.076;2022-12-29T00:41:23;0.63;;;0.57;;
58567;SDS011;44354;46.192;-1.076;2022-12-29T00:44:07;6.82;;;2.28;;
58567;SDS011;44354;46.192;-1.076;2022-12-29T00:46:39;0.50;;;0.50;;
58567;SDS011;44354;46.192;-1.076;2022-12-29T00:49:07;0.50;;;0.50;;
58567;SDS011;44354;46.192;-1.076;2022-12-29T00:51:52;3.53;;;2.10;;
58567;SDS011;44354;46.192;-1.076;2022-12-29T00:54:19;4.03;;;1.08;;
58567;SDS011;44354;46.192;-1.076;2022-12-29T00:56:45;11.85;;;1.73;;
58567;SDS011;44354;46.192;-1.076;2022-12-29T00:59:15;2.20;;;1.10;;
58567;SDS011;44354;46.192;-1.076;2022-12-29T01:01:41;1.17;;;0.98;;
58567;SDS011;44354;46.192;-1.076;2022-12-29T01:04:07;16.05;;;1.05;;
58567;SDS011;44354;46.192;-1.076;2022-12-29T01:06:35;1.13;;;1.13;;
58567;SDS011;44354;46.192;-1.076;2022-12-29T01:09:02;3.05;;;2.45;;
58567;SDS011;44354;46.192;-1.076;2022-12-29T01:11:47;3.10;;;1.92;;
58567;SDS011;44354;46.192;-1.076;2022-12-29T01:14:13;2.20;;;1.92;;
58567;SDS011;44354;46.192;-1.076;2022-12-29T01:16:39;7.30;;;1.50;;
58567;SDS011;44354;46.192;-1.076;2022-12-29T01:19:05;1.38;;;1.27;;
58567;SDS011;44354;46.192;-1.076;2022-12-29T01:21:30;13.23;;;1.77;;
58567;SDS011;44354;46.192;-1.076;2022-12-29T01:23:57;8.57;;;3.05;;
58567;SDS011;44354;46.192;-1.076;2022-12-29T01:26:23;6.97;;;2.53;;
58567;SDS011;44354;46.192;-1.076;2022-12-29T01:28:49;5.40;;;1.75;;
58567;SDS011;44354;46.192;-1.076;2022-12-29T01:31:15;0.90;;;0.90;;
58567;SDS011;44354;46.192;-1.076;2022-12-29T01:33:41;1.27;;;1.23;;
58567;SDS011;44354;46.192;-1.076;2022-12-29T01:36:08;0.93;;;0.93;;
58567;SDS011;44354;46.192;-1.076;2022-12-29T01:38:36;1.75;;;1.23;;
58567;SDS011;44354;46.192;-1.076;2022-12-29T01:41:03;1.02;;;0.90;;
58567;SDS011;44354;46.192;-1.076;2022-12-29T01:46:14;2.70;;;1.65;;
58567;SDS011;44354;46.192;-1.076;2022-12-29T01:48:48;1.10;;;1.10;;
58567;SDS011;44354;46.192;-1.076;2022-12-29T01:51:17;1.00;;;1.00;;
58567;SDS011;44354;46.192;-1.076;2022-12-29T01:53:43;13.57;;;3.05;;
58567;SDS011;44354;46.192;-1.076;2022-12-29T01:56:10;2.55;;;1.67;;
58567;SDS011;44354;46.192;-1.076;2022-12-29T01:58:41;4.65;;;2.10;;
58567;SDS011;44354;46.192;-1.076;2022-12-29T02:01:10;5.15;;;1.42;;
58567;SDS011;44354;46.192;-1.076;2022-12-29T02:03:36;7.78;;;2.53;;
58567;SDS011;44354;46.192;-1.076;2022-12-29T02:06:04;1.85;;;1.75;;
58567;SDS011;44354;46.192;-1.076;2022-12-29T02:08:33;4.22;;;1.80;;
58567;SDS011;44354;46.192;-1.076;2022-12-29T02:10:59;1.40;;;1.40;;
58567;SDS011;44354;46.192;-1.076;2022-12-29T02:13:26;9.73;;;2.15;;
58567;SDS011;44354;46.192;-1.076;2022-12-29T02:33:20;1.52;;;1.42;;
58567;SDS011;44354;46.192;-1.076;2022-12-29T02:38:38;2.25;;;2.15;;
58567;SDS011;44354;46.192;-1.076;2022-12-29T02:41:07;1.67;;;1.67;;
58567;SDS011;44354;46.192;-1.076;2022-12-29T02:46:20;1.85;;;1.75;;
58567;SDS011;44354;46.192;-1.076;2022-12-29T02:48:54;1.40;;;1.40;;
58567;SDS011;44354;46.192;-1.076;2022-12-29T02:51:29;2.55;;;1.50;;
58567;SDS011;44354;46.192;-1.076;2022-12-29T02:54:02;1.55;;;1.50;;
58567;SDS011;44354;46.192;-1.076;2022-12-29T02:56:47;5.05;;;1.52;;
58567;SDS011;44354;46.192;-1.076;2022-12-29T02:59:13;1.63;;;1.52;;
58567;SDS011;44354;46.192;-1.076;2022-12-29T03:01:57;6.28;;;2.60;;
58567;SDS011;44354;46.192;-1.076;2022-12-29T03:09:56;8.88;;;1.73;;
58567;SDS011;44354;46.192;-1.076;2022-12-29T03:12:29;5.47;;;1.60;;
58567;SDS011;44354;46.192;-1.076;2022-12-29T03:15:50;1.42;;;1.15;;
58567;SDS011;44354;46.192;-1.076;2022-12-29T03:18:49;1.00;;;1.00;;
58567;SDS011;44354;46.192;-1.076;2022-12-29T03:22:04;1.25;;;1.25;;
58567;SDS011;44354;46.192;-1.076;2022-12-29T03:24:34;4.55;;;1.48;;
58567;SDS011;44354;46.192;-1.076;2022-12-29T03:27:05;4.03;;;1.35;;
58567;SDS011;44354;46.192;-1.076;2022-12-29T03:29:33;3.25;;;1.58;;
58567;SDS011;44354;46.192;-1.076;2022-12-29T03:32:08;1.35;;;1.25;;
58567;SDS011;44354;46.192;-1.076;2022-12-29T03:34:37;5.53;;;1.50;;
58567;SDS011;44354;46.192;-1.076;2022-12-29T03:37:11;17.17;;;5.57;;
58567;SDS011;44354;46.192;-1.076;2022-12-29T03:42:08;6.43;;;2.70;;
58567;SDS011;44354;46.192;-1.076;2022-12-29T03:44:38;16.17;;;2.67;;
58567;SDS011;44354;46.192;-1.076;2022-12-29T03:47:06;7.20;;;3.10;;
58567;SDS011;44354;46.192;-1.076;2022-12-29T03:49:32;17.33;;;5.75;;
58567;SDS011;44354;46.192;-1.076;2022-12-29T03:51:58;12.27;;;2.17;;
58567;SDS011;44354;46.192;-1.076;2022-12-29T03:54:24;13.07;;;5.68;;
58567;SDS011;44354;46.192;-1.076;2022-12-29T03:56:50;2.50;;;1.20;;
58567;SDS011;44354;46.192;-1.076;2022-12-29T03:59:16;1.83;;;1.73;;
58567;SDS011;44354;46.192;-1.076;2022-12-29T04:01:41;0.88;;;0.88;;
58567;SDS011;44354;46.192;-1.076;2022-12-29T04:04:07;7.40;;;1.50;;
58567;SDS011;44354;46.192;-1.076;2022-12-29T04:06:33;12.93;;;1.92;;
58567;SDS011;44354;46.192;-1.076;2022-12-29T04:08:58;0.75;;;0.50;;
58567;SDS011;44354;46.192;-1.076;2022-12-29T04:11:24;7.93;;;0.70;;
58567;SDS011;44354;46.192;-1.076;2022-12-29T04:13:50;0.60;;;0.60;;
58567;SDS011;44354;46.192;-1.076;2022-12-29T04:16:16;12.05;;;2.05;;
58567;SDS011;44354;46.192;-1.076;2022-12-29T04:18:41;0.50;;;0.50;;
58567;SDS011;44354;46.192;-1.076;2022-12-29T04:21:07;0.88;;;0.40;;
58567;SDS011;44354;46.192;-1.076;2022-12-29T04:23:34;0.30;;;0.30;;
58567;SDS011;44354;46.192;-1.076;2022-12-29T04:26:02;1.13;;;1.08;;
58567;SDS011;44354;46.192;-1.076;2022-12-29T04:28:28;0.30;;;0.30;;
58567;SDS011;44354;46.192;-1.076;2022-12-29T04:30:54;0.70;;;0.70;;
58567;SDS011;44354;46.192;-1.076;2022-12-29T04:33:20;1.80;;;1.73;;
58567;SDS011;44354;46.192;-1.076;2022-12-29T04:35:46;4.85;;;1.55;;
58567;SDS011;44354;46.192;-1.076;2022-12-29T04:38:12;0.40;;;0.40;;
58567;SDS011;44354;46.192;-1.076;2022-12-29T04:40:39;0.77;;;0.77;;
58567;SDS011;44354;46.192;-1.076;2022-12-29T04:43:07;2.33;;;1.23;;
58567;SDS011;44354;46.192;-1.076;2022-12-29T04:45:33;5.45;;;1.58;;
58567;SDS011;44354;46.192;-1.076;2022-12-29T04:47:59;0.52;;;0.30;;
58567;SDS011;44354;46.192;-1.076;2022-12-29T04:50:25;1.65;;;0.80;;
58567;SDS011;44354;46.192;-1.076;2022-12-29T04:52:51;4.20;;;0.90;;
58567;SDS011;44354;46.192;-1.076;2022-12-29T04:55:17;0.30;;;0.30;;
58567;SDS011;44354;46.192;-1.076;2022-12-29T04:57:42;6.60;;;0.77;;
58567;SDS011;44354;46.192;-1.076;2022-12-29T05:00:08;0.45;;;0.45;;
58567;SDS011;44354;46.192;-1.076;2022-12-29T05:02:35;3.45;;;1.70;;
58567;SDS011;44354;46.192;-1.076;2022-12-29T05:05:02;2.20;;;1.50;;
58567;SDS011;44354;46.192;-1.076;2022-12-29T05:07:28;0.68;;;0.38;;
58567;SDS011;44354;46.192;-1.076;2022-12-29T05:09:54;2.60;;;0.57;;
58567;SDS011;44354;46.192;-1.076;2022-12-29T05:12:19;2.67;;;0.82;;
58567;SDS011;44354;46.192;-1.076;2022-12-29T05:14:45;11.48;;;1.52;;
58567;SDS011;44354;46.192;-1.076;2022-12-29T05:17:11;20.05;;;0.93;;
58567;SDS011;44354;46.192;-1.076;2022-12-29T05:19:36;1.85;;;1.75;;
58567;SDS011;44354;46.192;-1.076;2022-12-29T05:22:03;0.88;;;0.88;;
58567;SDS011;44354;46.192;-1.076;2022-12-29T05:24:29;10.57;;;0.70;;
58567;SDS011;44354;46.192;-1.076;2022-12-29T05:26:54;0.73;;;0.73;;
58567;SDS011;44354;46.192;-1.076;2022-12-29T05:29:20;0.82;;;0.68;;
58567;SDS011;44354;46.192;-1.076;2022-12-29T05:31:46;3.67;;;1.77;;
58567;SDS011;44354;46.192;-1.076;2022-12-29T05:34:12;1.45;;;1.38;;
58567;SDS011;44354;46.192;-1.076;2022-12-29T05:36:37;3.75;;;3.42;;
58567;SDS011;44354;46.192;-1.076;2022-12-29T05:39:03;1.65;;;1.17;;
58567;SDS011;44354;46.192;-1.076;2022-12-29T05:41:29;0.80;;;0.80;;
58567;SDS011;44354;46.192;-1.076;2022-12-29T05:43:55;0.70;;;0.70;;
58567;SDS011;44354;46.192;-1.076;2022-12-29T05:46:20;3.10;;;1.65;;
58567;SDS011;44354;46.192;-1.076;2022-12-29T05:48:46;0.80;;;0.80;;
58567;SDS011;44354;46.192;-1.076;2022-12-29T05:51:12;1.75;;;1.45;;
58567;SDS011;44354;46.192;-1.076;2022-12-29T05:53:38;3.13;;;1.20;;
58567;SDS011;44354;46.192;-1.076;2022-12-29T05:56:03;1.10;;;1.08;;
58567;SDS011;44354;46.192;-1.076;2022-12-29T05:58:29;10.32;;;1.35;;
58567;SDS011;44354;46.192;-1.076;2022-12-29T06:00:55;1.60;;;1.60;;
58567;SDS011;44354;46.192;-1.076;2022-12-29T06:03:20;6.70;;;1.77;;
58567;SDS011;44354;46.192;-1.076;2022-12-29T06:05:46;1.17;;;1.17;;
58567;SDS011;44354;46.192;-1.076;2022-12-29T06:08:12;6.55;;;2.38;;
58567;SDS011;44354;46.192;-1.076;2022-12-29T06:10:38;1.25;;;1.25;;
58567;SDS011;44354;46.192;-1.076;2022-12-29T06:13:04;0.90;;;0.90;;
58567;SDS011;44354;46.192;-1.076;2022-12-29T06:15:31;1.20;;;1.20;;
58567;SDS011;44354;46.192;-1.076;2022-12-29T06:17:57;1.17;;;1.17;;
58567;SDS011;44354;46.192;-1.076;2022-12-29T06:20:23;4.57;;;1.67;;
58567;SDS011;44354;46.192;-1.076;2022-12-29T06:22:49;1.00;;;1.00;;
58567;SDS011;44354;46.192;-1.076;2022-12-29T06:25:15;2.40;;;1.33;;
58567;SDS011;44354;46.192;-1.076;2022-12-29T06:27:41;1.05;;;1.05;;
58567;SDS011;44354;46.192;-1.076;2022-12-29T06:30:07;1.35;;;1.35;;
58567;SDS011;44354;46.192;-1.076;2022-12-29T06:32:34;1.17;;;1.17;;
58567;SDS011;44354;46.192;-1.076;2022-12-29T06:34:59;1.10;;;1.10;;
58567;SDS011;44354;46.192;-1.076;2022-12-29T06:37:25;1.17;;;1.17;;
58567;SDS011;44354;46.192;-1.076;2022-12-29T06:39:51;1.85;;;1.75;;
58567;SDS011;44354;46.192;-1.076;2022-12-29T06:42:16;1.10;;;1.10;;
58567;SDS011;44354;46.192;-1.076;2022-12-29T06:44:42;1.02;;;1.02;;
58567;SDS011;44354;46.192;-1.076;2022-12-29T06:47:08;0.90;;;0.90;;
58567;SDS011;44354;46.192;-1.076;2022-12-29T06:49:33;1.33;;;1.33;;
58567;SDS011;44354;46.192;-1.076;2022-12-29T06:51:59;1.00;;;1.00;;
58567;SDS011;44354;46.192;-1.076;2022-12-29T06:54:25;1.80;;;1.70;;
58567;SDS011;44354;46.192;-1.076;2022-12-29T06:56:51;1.00;;;1.00;;
58567;SDS011;44354;46.192;-1.076;2022-12-29T06:59:17;1.33;;;1.23;;
58567;SDS011;44354;46.192;-1.076;2022-12-29T07:01:43;1.00;;;1.00;;
58567;SDS011;44354;46.192;-1.076;2022-12-29T07:04:08;10.55;;;5.90;;
58567;SDS011;44354;46.192;-1.076;2022-12-29T07:06:34;1.23;;;1.13;;
58567;SDS011;44354;46.192;-1.076;2022-12-29T07:09:00;1.10;;;1.10;;
58567;SDS011;44354;46.192;-1.076;2022-12-29T07:11:25;0.90;;;0.90;;
58567;SDS011;44354;46.192;-1.076;2022-12-29T07:13:51;1.20;;;1.20;;
58567;SDS011;44354;46.192;-1.076;2022-12-29T07:16:17;11.32;;;1.55;;
58567;SDS011;44354;46.192;-1.076;2022-12-29T07:18:43;1.15;;;1.15;;
58567;SDS011;44354;46.192;-1.076;2022-12-29T07:21:08;1.33;;;1.33;;
58567;SDS011;44354;46.192;-1.076;2022-12-29T07:23:34;9.77;;;1.85;;
58567;SDS011;44354;46.192;-1.076;2022-12-29T07:26:04;1.60;;;1.50;;
58567;SDS011;44354;46.192;-1.076;2022-12-29T07:28:33;2.65;;;2.00;;
58567;SDS011;44354;46.192;-1.076;2022-12-29T07:30:59;4.03;;;2.17;;
58567;SDS011;44354;46.192;-1.076;2022-12-29T07:33:27;1.33;;;1.33;;
58567;SDS011;44354;46.192;-1.076;2022-12-29T07:35:54;1.73;;;1.65;;
58567;SDS011;44354;46.192;-1.076;2022-12-29T07:38:19;3.60;;;2.38;;
58567;SDS011;44354;46.192;-1.076;2022-12-29T07:40:45;1.40;;;1.40;;
58567;SDS011;44354;46.192;-1.076;2022-12-29T07:43:11;1.55;;;1.55;;
58567;SDS011;44354;46.192;-1.076;2022-12-29T07:45:36;1.40;;;1.40;;
58567;SDS011;44354;46.192;-1.076;2022-12-29T07:48:02;1.30;;;1.30;;
58567;SDS011;44354;46.192;-1.076;2022-12-29T07:50:30;1.98;;;1.88;;
58567;SDS011;44354;46.192;-1.076;2022-12-29T07:52:56;1.10;;;1.10;;
58567;SDS011;44354;46.192;-1.076;2022-12-29T07:55:22;1.15;;;1.15;;
58567;SDS011;44354;46.192;-1.076;2022-12-29T07:57:47;1.10;;;1.10;;
58567;SDS011;44354;46.192;-1.076;2022-12-29T08:00:13;4.65;;;1.45;;
58567;SDS011;44354;46.192;-1.076;2022-12-29T08:02:39;30.52;;;2.65;;
58567;SDS011;44354;46.192;-1.076;2022-12-29T08:05:05;8.98;;;2.65;;
58567;SDS011;44354;46.192;-1.076;2022-12-29T08:07:31;4.30;;;2.00;;
58567;SDS011;44354;46.192;-1.076;2022-12-29T08:09:56;1.25;;;1.25;;
58567;SDS011;44354;46.192;-1.076;2022-12-29T08:12:22;2.00;;;1.70;;
58567;SDS011;44354;46.192;-1.076;2022-12-29T08:14:48;9.63;;;1.88;;
58567;SDS011;44354;46.192;-1.076;2022-12-29T08:17:14;1.65;;;1.55;;
58567;SDS011;44354;46.192;-1.076;2022-12-29T08:19:39;2.03;;;1.92;;
58567;SDS011;44354;46.192;-1.076;2022-12-29T08:22:07;1.25;;;1.25;;
58567;SDS011;44354;46.192;-1.076;2022-12-29T08:24:33;2.00;;;1.42;;
58567;SDS011;44354;46.192;-1.076;2022-12-29T08:26:58;6.63;;;3.05;;
58567;SDS011;44354;46.192;-1.076;2022-12-29T08:29:24;1.38;;;1.38;;
58567;SDS011;44354;46.192;-1.076;2022-12-29T08:31:50;2.15;;;2.03;;
58567;SDS011;44354;46.192;-1.076;2022-12-29T08:34:16;1.63;;;1.50;;
58567;SDS011;44354;46.192;-1.076;2022-12-29T08:36:41;1.52;;;1.42;;
58567;SDS011;44354;46.192;-1.076;2022-12-29T08:39:07;1.60;;;1.50;;
58567;SDS011;44354;46.192;-1.076;2022-12-29T08:41:33;1.08;;;1.08;;
58567;SDS011;44354;46.192;-1.076;2022-12-29T08:43:58;1.10;;;1.10;;
58567;SDS011;44354;46.192;-1.076;2022-12-29T08:46:24;1.33;;;1.33;;
58567;SDS011;44354;46.192;-1.076;2022-12-29T08:48:50;1.80;;;1.48;;
58567;SDS011;44354;46.192;-1.076;2022-12-29T08:51:15;1.30;;;1.30;;
58567;SDS011;44354;46.192;-1.076;2022-12-29T08:53:42;1.23;;;1.23;;
58567;SDS011;44354;46.192;-1.076;2022-12-29T08:56:08;1.05;;;1.05;;
58567;SDS011;44354;46.192;-1.076;2022-12-29T08:58:34;1.20;;;1.10;;
58567;SDS011;44354;46.192;-1.076;2022-12-29T09:01:01;1.02;;;1.00;;
58567;SDS011;44354;46.192;-1.076;2022-12-29T09:03:26;1.70;;;1.48;;
58567;SDS011;44354;46.192;-1.076;2022-12-29T09:05:53;0.70;;;0.70;;
58567;SDS011;44354;46.192;-1.076;2022-12-29T09:08:19;0.63;;;0.63;;
58567;SDS011;44354;46.192;-1.076;2022-12-29T09:10:45;2.78;;;1.70;;
58567;SDS011;44354;46.192;-1.076;2022-12-29T09:13:12;3.30;;;0.70;;
58567;SDS011;44354;46.192;-1.076;2022-12-29T09:15:38;1.92;;;1.40;;
58567;SDS011;44354;46.192;-1.076;2022-12-29T09:18:04;0.68;;;0.65;;
58567;SDS011;44354;46.192;-1.076;2022-12-29T09:20:31;4.68;;;1.05;;
58567;SDS011;44354;46.192;-1.076;2022-12-29T09:23:00;0.20;;;0.20;;
58567;SDS011;44354;46.192;-1.076;2022-12-29T09:25:26;0.20;;;0.20;;
58567;SDS011;44354;46.192;-1.076;2022-12-29T09:27:53;2.17;;;1.75;;
58567;SDS011;44354;46.192;-1.076;2022-12-29T09:30:20;9.38;;;0.73;;
58567;SDS011;44354;46.192;-1.076;2022-12-29T09:32:47;0.77;;;0.60;;
58567;SDS011;44354;46.192;-1.076;2022-12-29T09:35:14;0.28;;;0.28;;
58567;SDS011;44354;46.192;-1.076;2022-12-29T09:37:41;0.85;;;0.85;;
58567;SDS011;44354;46.192;-1.076;2022-12-29T09:40:15;0.10;;;0.10;;
58567;SDS011;44354;46.192;-1.076;2022-12-29T09:48:20;0.30;;;0.30;;
58567;SDS011;44354;46.192;-1.076;2022-12-29T09:50:57;0.13;;;0.13;;
58567;SDS011;44354;46.192;-1.076;2022-12-29T09:53:27;0.20;;;0.20;;
58567;SDS011;44354;46.192;-1.076;2022-12-29T09:56:02;0.73;;;0.73;;
58567;SDS011;44354;46.192;-1.076;2022-12-29T09:58:37;0.43;;;0.40;;
58567;SDS011;44354;46.192;-1.076;2022-12-29T10:04:00;0.28;;;0.28;;
58567;SDS011;44354;46.192;-1.076;2022-12-29T10:11:45;0.82;;;0.82;;
58567;SDS011;44354;46.192;-1.076;2022-12-29T10:25:41;3.03;;;0.95;;
58567;SDS011;44354;46.192;-1.076;2022-12-29T10:28:19;0.40;;;0.40;;
58567;SDS011;44354;46.192;-1.076;2022-12-29T10:30:48;0.80;;;0.80;;
58567;SDS011;44354;46.192;-1.076;2022-12-29T10:33:18;1.75;;;0.90;;
58567;SDS011;44354;46.192;-1.076;2022-12-29T10:35:48;1.38;;;0.60;;
58567;SDS011;44354;46.192;-1.076;2022-12-29T10:44:02;5.07;;;2.28;;
58567;SDS011;44354;46.192;-1.076;2022-12-29T10:46:29;4.07;;;2.30;;
58567;SDS011;44354;46.192;-1.076;2022-12-29T10:48:59;18.55;;;7.30;;
58567;SDS011;44354;46.192;-1.076;2022-12-29T10:51:48;2.00;;;1.90;;
58567;SDS011;44354;46.192;-1.076;2022-12-29T10:54:32;7.13;;;3.03;;
58567;SDS011;44354;46.192;-1.076;2022-12-29T10:57:05;4.75;;;4.38;;
58567;SDS011;44354;46.192;-1.076;2022-12-29T10:59:36;3.53;;;3.22;;
58567;SDS011;44354;46.192;-1.076;2022-12-29T11:07:03;3.22;;;1.90;;
58567;SDS011;44354;46.192;-1.076;2022-12-29T11:09:30;8.27;;;3.83;;
58567;SDS011;44354;46.192;-1.076;2022-12-29T11:11:58;6.10;;;4.40;;
58567;SDS011;44354;46.192;-1.076;2022-12-29T11:14:28;5.53;;;1.80;;
58567;SDS011;44354;46.192;-1.076;2022-12-29T11:16:56;3.47;;;3.17;;
58567;SDS011;44354;46.192;-1.076;2022-12-29T11:19:24;2.65;;;2.45;;
58567;SDS011;44354;46.192;-1.076;2022-12-29T11:21:52;1.48;;;1.38;;
58567;SDS011;44354;46.192;-1.076;2022-12-29T11:24:25;1.92;;;1.83;;
58567;SDS011;44354;46.192;-1.076;2022-12-29T11:27:07;1.00;;;1.00;;
58567;SDS011;44354;46.192;-1.076;2022-12-29T11:29:40;1.73;;;1.63;;
58567;SDS011;44354;46.192;-1.076;2022-12-29T11:32:26;1.40;;;1.35;;
58567;SDS011;44354;46.192;-1.076;2022-12-29T11:34:57;1.10;;;1.10;;
58567;SDS011;44354;46.192;-1.076;2022-12-29T11:37:27;1.52;;;1.42;;
58567;SDS011;44354;46.192;-1.076;2022-12-29T11:40:04;4.07;;;2.35;;
58567;SDS011;44354;46.192;-1.076;2022-12-29T11:43:01;3.22;;;1.92;;
58567;SDS011;44354;46.192;-1.076;2022-12-29T11:45:38;2.20;;;1.95;;
58567;SDS011;44354;46.192;-1.076;2022-12-29T11:48:16;4.93;;;2.47;;
58567;SDS011;44354;46.192;-1.076;2022-12-29T11:50:48;2.72;;;2.50;;
58567;SDS011;44354;46.192;-1.076;2022-12-29T11:53:21;2.30;;;2.20;;
58567;SDS011;44354;46.192;-1.076;2022-12-29T11:56:12;2.80;;;2.67;;
58567;SDS011;44354;46.192;-1.076;2022-12-29T11:58:47;4.00;;;3.67;;
58567;SDS011;44354;46.192;-1.076;2022-12-29T12:01:17;3.90;;;3.63;;
58567;SDS011;44354;46.192;-1.076;2022-12-29T12:06:41;3.78;;;3.38;;
58567;SDS011;44354;46.192;-1.076;2022-12-29T12:11:44;8.50;;;4.15;;
58567;SDS011;44354;46.192;-1.076;2022-12-29T12:14:12;4.05;;;3.85;;
58567;SDS011;44354;46.192;-1.076;2022-12-29T12:16:48;8.52;;;5.68;;
58567;SDS011;44354;46.192;-1.076;2022-12-29T12:19:36;4.43;;;4.13;;
58567;SDS011;44354;46.192;-1.076;2022-12-29T12:22:07;4.25;;;4.05;;
58567;SDS011;44354;46.192;-1.076;2022-12-29T12:27:26;5.15;;;4.75;;
58567;SDS011;44354;46.192;-1.076;2022-12-29T12:30:04;4.63;;;4.38;;
58567;SDS011;44354;46.192;-1.076;2022-12-29T12:35:31;3.80;;;3.60;;
58567;SDS011;44354;46.192;-1.076;2022-12-29T12:40:48;3.80;;;3.60;;
58567;SDS011;44354;46.192;-1.076;2022-12-29T13:00:30;3.47;;;3.28;;
58567;SDS011;44354;46.192;-1.076;2022-12-29T13:03:33;2.83;;;2.72;;
58567;SDS011;44354;46.192;-1.076;2022-12-29T13:06:21;10.60;;;3.95;;
58567;SDS011;44354;46.192;-1.076;2022-12-29T13:17:33;11.98;;;4.53;;
58567;SDS011;44354;46.192;-1.076;2022-12-29T13:25:37;2.08;;;1.98;;
58567;SDS011;44354;46.192;-1.076;2022-12-29T13:28:16;4.18;;;3.70;;
58567;SDS011;44354;46.192;-1.076;2022-12-29T13:33:47;7.65;;;3.53;;
58567;SDS011;44354;46.192;-1.076;2022-12-29T13:36:16;3.45;;;3.17;;
58567;SDS011;44354;46.192;-1.076;2022-12-29T13:39:05;8.57;;;3.03;;
58567;SDS011;44354;46.192;-1.076;2022-12-29T13:41:42;4.30;;;3.92;;
58567;SDS011;44354;46.192;-1.076;2022-12-29T13:44:16;2.70;;;2.58;;
58567;SDS011;44354;46.192;-1.076;2022-12-29T13:46:56;2.40;;;2.30;;
58567;SDS011;44354;46.192;-1.076;2022-12-29T13:49:25;15.48;;;2.95;;
58567;SDS011;44354;46.192;-1.076;2022-12-29T13:51:55;2.90;;;2.70;;
58567;SDS011;44354;46.192;-1.076;2022-12-29T14:00:16;2.90;;;2.80;;
58567;SDS011;44354;46.192;-1.076;2022-12-29T14:07:45;3.08;;;2.88;;
58567;SDS011;44354;46.192;-1.076;2022-12-29T14:13:13;6.10;;;4.43;;
58567;SDS011;44354;46.192;-1.076;2022-12-29T14:15:42;3.42;;;3.25;;
58567;SDS011;44354;46.192;-1.076;2022-12-29T14:18:17;3.10;;;3.00;;
58567;SDS011;44354;46.192;-1.076;2022-12-29T14:28:34;5.10;;;4.80;;
58567;SDS011;44354;46.192;-1.076;2022-12-29T14:36:34;5.65;;;5.25;;
58567;SDS011;44354;46.192;-1.076;2022-12-29T14:39:00;5.18;;;4.95;;
58567;SDS011;44354;46.192;-1.076;2022-12-29T14:41:32;5.10;;;4.90;;
58567;SDS011;44354;46.192;-1.076;2022-12-29T14:44:16;5.90;;;5.60;;
58567;SDS011;44354;46.192;-1.076;2022-12-29T14:47:27;6.30;;;5.90;;
58567;SDS011;44354;46.192;-1.076;2022-12-29T14:49:39;4.97;;;4.78;;
58567;SDS011;44354;46.192;-1.076;2022-12-29T14:52:13;5.75;;;5.47;;
58567;SDS011;44354;46.192;-1.076;2022-12-29T14:54:52;4.68;;;4.47;;
58567;SDS011;44354;46.192;-1.076;2022-12-29T14:57:27;11.98;;;5.95;;
58567;SDS011;44354;46.192;-1.076;2022-12-29T14:59:58;5.88;;;5.57;;
58567;SDS011;44354;46.192;-1.076;2022-12-29T15:02:33;6.20;;;5.90;;
58567;SDS011;44354;46.192;-1.076;2022-12-29T15:05:03;5.75;;;5.45;;
58567;SDS011;44354;46.192;-1.076;2022-12-29T15:07:31;6.53;;;6.22;;
58567;SDS011;44354;46.192;-1.076;2022-12-29T15:10:11;5.63;;;5.35;;
58567;SDS011;44354;46.192;-1.076;2022-12-29T15:12:43;7.72;;;7.32;;
58567;SDS011;44354;46.192;-1.076;2022-12-29T15:17:49;9.27;;;8.60;;
58567;SDS011;44354;46.192;-1.076;2022-12-29T15:23:11;6.53;;;6.20;;
58567;SDS011;44354;46.192;-1.076;2022-12-29T15:25:36;6.13;;;5.82;;
58567;SDS011;44354;46.192;-1.076;2022-12-29T15:28:11;6.05;;;5.75;;
58567;SDS011;44354;46.192;-1.076;2022-12-29T15:30:49;9.10;;;8.30;;
58567;SDS011;44354;46.192;-1.076;2022-12-29T15:33:28;4.95;;;4.75;;
58567;SDS011;44354;46.192;-1.076;2022-12-29T15:35:55;6.47;;;6.07;;
58567;SDS011;44354;46.192;-1.076;2022-12-29T15:38:28;6.53;;;6.22;;
58567;SDS011;44354;46.192;-1.076;2022-12-29T15:40:59;6.28;;;5.97;;
58567;SDS011;44354;46.192;-1.076;2022-12-29T15:46:30;5.05;;;4.85;;
58567;SDS011;44354;46.192;-1.076;2022-12-29T15:48:56;6.75;;;6.45;;
58567;SDS011;44354;46.192;-1.076;2022-12-29T15:51:29;6.50;;;6.20;;
58567;SDS011;44354;46.192;-1.076;2022-12-29T15:53:59;6.50;;;6.20;;
58567;SDS011;44354;46.192;-1.076;2022-12-29T15:56:28;10.00;;;9.20;;
58567;SDS011;44354;46.192;-1.076;2022-12-29T15:58:54;7.63;;;7.13;;
58567;SDS011;44354;46.192;-1.076;2022-12-29T16:01:33;6.82;;;6.53;;
58567;SDS011;44354;46.192;-1.076;2022-12-29T16:04:03;7.95;;;7.22;;
58567;SDS011;44354;46.192;-1.076;2022-12-29T16:08:58;5.93;;;5.63;;
58567;SDS011;44354;46.192;-1.076;2022-12-29T16:13:57;7.43;;;6.95;;
58567;SDS011;44354;46.192;-1.076;2022-12-29T16:16:28;8.43;;;7.93;;
58567;SDS011;44354;46.192;-1.076;2022-12-29T16:19:01;6.65;;;6.35;;
58567;SDS011;44354;46.192;-1.076;2022-12-29T16:21:34;6.38;;;6.07;;
58567;SDS011;44354;46.192;-1.076;2022-12-29T16:24:02;6.15;;;5.85;;
58567;SDS011;44354;46.192;-1.076;2022-12-29T16:26:31;7.80;;;7.07;;
58567;SDS011;44354;46.192;-1.076;2022-12-29T16:28:58;5.82;;;5.53;;
58567;SDS011;44354;46.192;-1.076;2022-12-29T16:31:34;6.20;;;5.90;;
58567;SDS011;44354;46.192;-1.076;2022-12-29T16:34:13;5.95;;;5.65;;
58567;SDS011;44354;46.192;-1.076;2022-12-29T16:39:24;6.05;;;5.75;;
58567;SDS011;44354;46.192;-1.076;2022-12-29T16:41:55;5.57;;;5.28;;
58567;SDS011;44354;46.192;-1.076;2022-12-29T16:46:57;5.60;;;5.32;;
58567;SDS011;44354;46.192;-1.076;2022-12-29T16:49:29;4.80;;;4.60;;
58567;SDS011;44354;46.192;-1.076;2022-12-29T16:51:57;5.60;;;5.32;;
58567;SDS011;44354;46.192;-1.076;2022-12-29T16:54:46;5.30;;;5.10;;
58567;SDS011;44354;46.192;-1.076;2022-12-29T16:57:14;4.85;;;4.65;;
58567;SDS011;44354;46.192;-1.076;2022-12-29T16:59:40;4.82;;;4.63;;
58567;SDS011;44354;46.192;-1.076;2022-12-29T17:02:12;5.00;;;4.80;;
58567;SDS011;44354;46.192;-1.076;2022-12-29T17:04:40;4.25;;;4.05;;
58567;SDS011;44354;46.192;-1.076;2022-12-29T17:07:16;4.68;;;4.47;;
58567;SDS011;44354;46.192;-1.076;2022-12-29T17:09:44;7.68;;;7.28;;
58567;SDS011;44354;46.192;-1.076;2022-12-29T17:12:10;4.90;;;4.70;;
58567;SDS011;44354;46.192;-1.076;2022-12-29T17:14:43;4.45;;;4.25;;
58567;SDS011;44354;46.192;-1.076;2022-12-29T17:17:34;4.15;;;3.95;;
58567;SDS011;44354;46.192;-1.076;2022-12-29T17:20:06;4.43;;;4.22;;
58567;SDS011;44354;46.192;-1.076;2022-12-29T17:22:41;4.70;;;4.50;;
58567;SDS011;44354;46.192;-1.076;2022-12-29T17:25:08;4.60;;;4.40;;
58567;SDS011;44354;46.192;-1.076;2022-12-29T17:27:38;3.95;;;3.75;;
58567;SDS011;44354;46.192;-1.076;2022-12-29T17:30:12;4.18;;;3.97;;
58567;SDS011;44354;46.192;-1.076;2022-12-29T17:32:43;4.20;;;4.00;;
58567;SDS011;44354;46.192;-1.076;2022-12-29T17:35:15;4.65;;;4.45;;